Time;durP1;ratioP1;P1;durP2;ratioP2;P2;SDS_P1;SDS_P2;PMS_P1;PMS_P2;Temp;Humidity;BMP_temperature;BMP_pressure;BME280_temperature;BME280_humidity;BME280_pressure;Samples;Min_cycle;Max_cycle;Signal;HPM_P1;HPM_P2
2023/05/18 00:00:45;;;;;;;17.80;4.75;;;;;;;7.91;100.00;102620.97;5086018;28;20519;-70
2023/05/18 00:03:11;;;;;;;21.10;5.30;;;;;;;7.72;100.00;102622.78;5085767;28;20051;-70
2023/05/18 00:05:36;;;;;;;18.95;5.05;;;;;;;7.58;100.00;102618.63;5084572;28;20039;-70
2023/05/18 00:08:02;;;;;;;19.90;4.80;;;;;;;7.61;100.00;102622.28;5086610;28;20036;-70
2023/05/18 00:10:28;;;;;;;19.77;5.10;;;;;;;7.64;100.00;102625.06;5083636;28;20036;-70
2023/05/18 00:12:53;;;;;;;18.83;5.00;;;;;;;7.53;100.00;102618.44;5086663;28;20031;-69
2023/05/18 00:15:19;;;;;;;20.13;4.90;;;;;;;7.53;100.00;102623.69;5084123;28;20032;-70
2023/05/18 00:17:44;;;;;;;19.45;4.90;;;;;;;7.50;100.00;102623.56;5085745;28;20029;-70
2023/05/18 00:20:10;;;;;;;18.25;4.97;;;;;;;7.37;100.00;102626.44;5085424;28;20032;-70
2023/05/18 00:22:37;;;;;;;18.63;5.30;;;;;;;7.37;100.00;102622.09;5084075;28;20111;-72
2023/05/18 00:25:03;;;;;;;19.85;5.00;;;;;;;7.30;100.00;102630.53;5086751;28;20504;-81
2023/05/18 00:27:29;;;;;;;17.85;5.03;;;;;;;7.25;100.00;102622.44;5083110;28;20036;-72
2023/05/18 00:29:54;;;;;;;18.50;4.97;;;;;;;7.22;100.00;102622.28;5086534;28;20020;-71
2023/05/18 00:32:20;;;;;;;18.00;5.28;;;;;;;7.28;100.00;102617.31;5065897;28;20097;-75
2023/05/18 00:34:45;;;;;;;19.00;5.30;;;;;;;7.18;100.00;102620.34;5085352;28;20092;-71
2023/05/18 00:37:10;;;;;;;19.27;4.68;;;;;;;7.18;100.00;102628.25;5085035;28;20031;-79
2023/05/18 00:39:36;;;;;;;18.50;5.00;;;;;;;7.09;100.00;102625.16;5084015;28;20608;-75
2023/05/18 00:42:01;;;;;;;20.15;5.43;;;;;;;7.07;100.00;102624.19;5086179;28;20485;-77
2023/05/18 00:44:27;;;;;;;18.55;5.07;;;;;;;7.02;100.00;102631.88;5083010;28;20031;-72
2023/05/18 00:46:52;;;;;;;19.55;4.90;;;;;;;7.03;100.00;102636.28;5085960;28;20379;-70
2023/05/18 00:49:18;;;;;;;20.08;5.07;;;;;;;7.03;100.00;102628.41;5083628;28;20506;-76
2023/05/18 00:51:44;;;;;;;18.05;5.00;;;;;;;6.99;100.00;102623.84;5084718;28;20178;-70
2023/05/18 00:54:10;;;;;;;20.75;5.38;;;;;;;6.84;100.00;102625.72;5084836;28;20100;-71
2023/05/18 00:56:40;;;;;;;19.10;5.00;;;;;;;6.82;100.00;102630.03;5065385;28;20476;-71
2023/05/18 00:59:09;;;;;;;18.13;5.13;;;;;;;6.74;100.00;102621.75;5085520;28;20020;-79
2023/05/18 01:01:35;;;;;;;19.40;5.20;;;;;;;6.65;100.00;102629.19;5083287;28;20028;-74
2023/05/18 01:04:01;;;;;;;18.00;4.97;;;;;;;6.63;100.00;102629.13;5085367;28;20383;-76
2023/05/18 01:06:31;;;;;;;17.10;4.80;;;;;;;6.65;100.00;102629.19;5064596;28;20392;-77
2023/05/18 01:08:58;;;;;;;21.38;5.50;;;;;;;6.59;100.00;102632.44;5078585;28;20032;-78
2023/05/18 01:11:47;;;;;;;19.48;5.50;;;;;;;6.54;100.00;102628.66;5085501;28;20032;-76
2023/05/18 01:14:23;;;;;;;18.30;5.05;;;;;;;6.59;100.00;102633.31;5082387;28;20486;-74
2023/05/18 01:17:04;;;;;;;19.35;5.40;;;;;;;6.53;100.00;102634.75;5083095;28;20032;-75
2023/05/18 01:19:38;;;;;;;21.38;5.40;;;;;;;6.42;100.00;102636.84;5078680;28;20033;-76
2023/05/18 01:22:31;;;;;;;19.48;5.43;;;;;;;6.37;100.00;102636.63;5079908;28;20036;-75
2023/05/18 01:25:17;;;;;;;21.52;5.63;;;;;;;6.36;100.00;102637.44;5078232;28;20024;-76
2023/05/18 01:27:45;;;;;;;20.58;5.50;;;;;;;6.38;100.00;102638.44;5082050;28;20433;-79
2023/05/18 01:30:14;;;;;;;20.13;5.68;;;;;;;6.37;100.00;102643.59;5084113;28;20036;-82
2023/05/18 01:32:45;;;;;;;20.75;5.82;;;;;;;6.32;100.00;102639.81;5083047;28;20028;-76
2023/05/18 01:35:10;;;;;;;20.38;5.80;;;;;;;6.34;100.00;102640.81;5084049;28;20028;-76
2023/05/18 01:37:35;;;;;;;20.48;5.50;;;;;;;6.30;100.00;102637.13;5082708;28;20074;-80
2023/05/18 01:40:04;;;;;;;18.20;5.47;;;;;;;6.26;100.00;102638.72;5085135;28;20364;-72
2023/05/18 01:42:33;;;;;;;19.63;5.60;;;;;;;6.21;100.00;102634.94;5081755;28;20054;-82
2023/05/18 01:45:06;;;;;;;19.23;5.50;;;;;;;6.16;100.00;102638.16;5078189;28;20033;-71
2023/05/18 01:47:33;;;;;;;19.92;5.60;;;;;;;6.15;100.00;102633.75;5078133;28;20119;-76
2023/05/18 01:50:09;;;;;;;18.98;5.30;;;;;;;6.07;100.00;102642.13;5085088;28;20032;-77
2023/05/18 01:52:44;;;;;;;18.83;5.50;;;;;;;6.08;100.00;102641.28;5079309;28;20028;-83
2023/05/18 01:55:12;;;;;;;19.60;5.63;;;;;;;5.99;100.00;102639.94;5083739;28;20028;-79
2023/05/18 01:57:41;;;;;;;18.42;5.55;;;;;;;5.98;100.00;102646.00;5064577;28;20039;-78
2023/05/18 02:00:09;;;;;;;20.50;5.75;;;;;;;5.92;100.00;102642.19;5083835;28;20024;-70
2023/05/18 02:02:35;;;;;;;19.65;5.72;;;;;;;5.94;100.00;102634.38;5081896;28;20025;-79
2023/05/18 02:05:01;;;;;;;18.38;5.10;;;;;;;5.88;100.00;102635.00;5085042;28;20020;-77
2023/05/18 02:07:26;;;;;;;19.52;5.60;;;;;;;5.92;100.00;102641.28;5077175;28;20387;-78
2023/05/18 02:09:52;;;;;;;21.02;5.80;;;;;;;5.91;100.00;102631.59;5084116;28;20064;-77
2023/05/18 02:12:17;;;;;;;20.88;5.50;;;;;;;5.98;100.00;102638.13;5082718;28;20031;-79
2023/05/18 02:14:42;;;;;;;20.08;5.65;;;;;;;6.02;100.00;102630.47;5064709;28;20121;-80
2023/05/18 02:17:08;;;;;;;19.75;5.75;;;;;;;5.94;100.00;102630.06;5082597;28;20024;-73
2023/05/18 02:19:36;;;;;;;19.27;5.68;;;;;;;6.00;100.00;102625.97;5081625;28;20039;-75
2023/05/18 02:22:06;;;;;;;21.40;5.90;;;;;;;5.99;100.00;102632.06;5084410;28;20027;-77
2023/05/18 02:24:32;;;;;;;20.05;5.55;;;;;;;5.96;100.00;102626.63;5081101;28;20031;-82
2023/05/18 02:26:58;;;;;;;19.38;5.72;;;;;;;5.99;100.00;102627.69;5084885;28;20032;-78
2023/05/18 02:29:23;;;;;;;19.25;5.60;;;;;;;5.86;100.00;102625.22;5081234;28;20521;-75
2023/05/18 02:31:49;;;;;;;21.38;5.90;;;;;;;5.87;100.00;102620.06;5083564;28;20044;-79
2023/05/18 02:34:15;;;;;;;19.30;5.90;;;;;;;5.83;100.00;102622.44;5082977;28;20105;-80
2023/05/18 02:36:41;;;;;;;19.67;5.70;;;;;;;5.82;100.00;102624.16;5082323;28;20021;-80
2023/05/18 02:39:08;;;;;;;19.52;5.60;;;;;;;5.85;100.00;102626.94;5083732;28;20535;-82
2023/05/18 02:41:34;;;;;;;21.15;5.85;;;;;;;5.80;100.00;102617.03;5081512;28;20028;-74
2023/05/18 02:44:01;;;;;;;19.92;5.88;;;;;;;5.78;100.00;102614.31;5084453;28;20032;-68
2023/05/18 02:46:26;;;;;;;17.65;5.80;;;;;;;5.70;100.00;102613.91;5076900;28;20044;-68
2023/05/18 02:48:51;;;;;;;20.50;5.68;;;;;;;5.64;100.00;102608.34;5083632;28;20051;-67
2023/05/18 02:51:17;;;;;;;19.88;5.70;;;;;;;5.60;100.00;102611.63;5081949;28;20024;-72
2023/05/18 02:53:45;;;;;;;19.48;5.70;;;;;;;5.63;100.00;102613.53;5082452;28;20029;-69
2023/05/18 02:56:11;;;;;;;20.27;6.25;;;;;;;5.62;100.00;102611.72;5083142;28;20043;-69
2023/05/18 02:58:37;;;;;;;20.67;5.88;;;;;;;5.62;100.00;102616.97;5081365;28;20064;-69
2023/05/18 03:01:06;;;;;;;18.88;5.55;;;;;;;5.53;100.00;102618.28;5083987;28;20055;-69
2023/05/18 03:03:32;;;;;;;18.48;6.10;;;;;;;5.50;100.00;102612.84;5080843;28;20451;-69
2023/05/18 03:05:57;;;;;;;18.95;6.00;;;;;;;5.45;100.00;102613.47;5084162;28;20044;-69
2023/05/18 03:08:25;;;;;;;19.83;5.80;;;;;;;5.41;100.00;102620.25;5081214;28;20024;-69
2023/05/18 03:10:51;;;;;;;18.98;5.90;;;;;;;5.33;100.00;102611.03;5083375;28;20038;-69
2023/05/18 03:13:16;;;;;;;19.95;6.00;;;;;;;5.31;100.00;102618.84;5081844;28;20024;-69
2023/05/18 03:15:44;;;;;;;19.55;6.05;;;;;;;5.26;100.00;102615.06;5082303;28;20028;-69
2023/05/18 03:18:10;;;;;;;21.30;6.43;;;;;;;5.23;100.00;102621.06;5083032;28;20020;-69
2023/05/18 03:20:36;;;;;;;19.02;5.85;;;;;;;5.14;100.00;102623.19;5081033;28;20494;-69
2023/05/18 03:23:02;;;;;;;18.95;5.97;;;;;;;5.11;100.00;102615.16;5084029;28;20028;-69
2023/05/18 03:25:27;;;;;;;19.38;6.10;;;;;;;5.05;100.00;102617.41;5080414;28;20032;-69
2023/05/18 03:27:53;;;;;;;20.23;6.05;;;;;;;5.12;100.00;102619.56;5084663;28;20035;-69
2023/05/18 03:30:18;;;;;;;20.65;6.38;;;;;;;5.03;100.00;102625.19;5085766;28;20031;-69
2023/05/18 03:32:46;;;;;;;20.02;6.05;;;;;;;5.04;100.00;102620.88;5085878;28;20031;-69
2023/05/18 03:35:12;;;;;;;18.88;5.93;;;;;;;4.91;100.00;102620.97;5098707;28;20051;-69
2023/05/18 03:37:37;;;;;;;22.23;6.18;;;;;;;4.89;100.00;102621.81;5101285;28;20051;-69
2023/05/18 03:40:13;;;;;;;19.80;6.65;;;;;;;4.84;100.00;102620.66;5103827;28;20021;-69
2023/05/18 03:42:42;;;;;;;19.85;6.43;;;;;;;4.78;100.00;102620.31;5098159;28;20032;-69
2023/05/18 03:45:09;;;;;;;19.40;5.97;;;;;;;4.80;100.00;102623.91;5086905;28;20416;-69
2023/05/18 03:47:35;;;;;;;20.45;6.22;;;;;;;4.80;100.00;102620.41;5084538;28;20060;-69
2023/05/18 03:50:01;;;;;;;20.50;6.70;;;;;;;4.84;100.00;102620.66;5087463;28;20478;-69
2023/05/18 03:52:28;;;;;;;20.90;6.38;;;;;;;4.88;100.00;102620.00;5084473;28;20040;-69
2023/05/18 03:54:54;;;;;;;20.73;6.07;;;;;;;4.94;100.00;102618.56;5087007;28;20074;-68
2023/05/18 03:57:19;;;;;;;19.00;6.03;;;;;;;4.93;100.00;102625.50;5084893;28;20036;-69
2023/05/18 03:59:45;;;;;;;19.85;6.10;;;;;;;4.98;100.00;102623.13;5085436;28;20034;-69
2023/05/18 04:02:11;;;;;;;21.20;6.53;;;;;;;5.03;100.00;102624.31;5086128;28;20032;-68
2023/05/18 04:04:40;;;;;;;20.63;6.32;;;;;;;5.02;100.00;102627.72;5084444;28;20081;-68
2023/05/18 04:07:07;;;;;;;20.85;6.43;;;;;;;5.04;100.00;102628.75;5086414;28;20028;-69
2023/05/18 04:09:32;;;;;;;20.42;6.45;;;;;;;5.04;100.00;102628.75;5084240;28;20494;-68
2023/05/18 04:11:58;;;;;;;20.85;6.20;;;;;;;5.04;100.00;102631.34;5087009;28;20115;-68
2023/05/18 04:14:26;;;;;;;21.08;6.35;;;;;;;5.03;100.00;102638.31;5084045;28;20108;-68
2023/05/18 04:16:52;;;;;;;20.15;6.38;;;;;;;5.00;100.00;102639.88;5086439;28;20041;-69
2023/05/18 04:19:17;;;;;;;19.70;6.53;;;;;;;5.01;100.00;102633.78;5084697;28;20471;-68
2023/05/18 04:21:46;;;;;;;18.98;6.30;;;;;;;5.00;100.00;102643.38;5085023;28;20028;-68
2023/05/18 04:24:13;;;;;;;19.92;6.55;;;;;;;5.02;100.00;102643.47;5085824;28;20031;-69
2023/05/18 04:26:41;;;;;;;21.27;6.50;;;;;;;5.09;100.00;102648.22;5084093;28;20123;-69
2023/05/18 04:29:09;;;;;;;20.50;6.45;;;;;;;5.13;100.00;102642.34;5068080;28;20054;-70
2023/05/18 04:31:35;;;;;;;22.65;6.70;;;;;;;5.18;100.00;102640.84;5083579;28;20040;-70
2023/05/18 04:34:00;;;;;;;22.40;7.00;;;;;;;5.27;100.00;102647.44;5086656;28;20020;-69
2023/05/18 04:36:29;;;;;;;21.83;6.65;;;;;;;5.27;100.00;102652.69;5083221;28;20037;-70
2023/05/18 04:38:57;;;;;;;21.55;6.85;;;;;;;5.34;100.00;102655.72;5085485;28;20071;-69
2023/05/18 04:41:23;;;;;;;19.98;6.70;;;;;;;5.32;100.00;102652.13;5083506;28;20036;-69
2023/05/18 04:43:49;;;;;;;21.27;6.82;;;;;;;5.41;100.00;102649.09;5085041;28;20033;-70
2023/05/18 04:46:15;;;;;;;21.35;7.03;;;;;;;5.43;100.00;102646.56;5084970;28;20471;-69
2023/05/18 04:48:41;;;;;;;21.33;7.18;;;;;;;5.46;100.00;102654.59;5083861;28;20049;-69
2023/05/18 04:51:06;;;;;;;20.33;6.78;;;;;;;5.50;100.00;102651.31;5085649;28;20081;-70
2023/05/18 04:53:37;;;;;;;23.20;7.18;;;;;;;5.56;100.00;102655.19;5082986;28;20028;-68
2023/05/18 04:56:03;;;;;;;21.10;6.82;;;;;;;5.63;100.00;102663.38;5079223;28;20032;-69
2023/05/18 04:58:29;;;;;;;19.30;6.55;;;;;;;5.65;100.00;102661.72;5086007;28;20035;-69
2023/05/18 05:00:55;;;;;;;19.75;6.60;;;;;;;5.67;100.00;102661.00;5083018;28;20033;-70
2023/05/18 05:03:21;;;;;;;21.15;6.70;;;;;;;5.74;100.00;102664.84;5085009;28;20060;-69
2023/05/18 05:05:46;;;;;;;21.10;6.65;;;;;;;5.79;100.00;102659.84;5084250;28;20070;-70
2023/05/18 05:08:11;;;;;;;23.48;7.13;;;;;;;5.83;100.00;102667.06;5083694;28;20418;-69
2023/05/18 05:10:37;;;;;;;21.80;6.90;;;;;;;5.94;100.00;102669.44;5085307;28;20043;-69
2023/05/18 05:13:03;;;;;;;22.92;7.10;;;;;;;6.01;100.00;102672.41;5082479;28;20025;-69
2023/05/18 05:15:28;;;;;;;19.58;6.57;;;;;;;6.07;100.00;102664.84;5078068;28;20499;-69
2023/05/18 05:17:54;;;;;;;21.15;7.10;;;;;;;6.11;100.00;102664.19;5085178;28;20020;-69
2023/05/18 05:20:20;;;;;;;20.95;6.80;;;;;;;6.18;100.00;102666.31;5083484;28;20056;-69
2023/05/18 05:22:45;;;;;;;20.77;6.88;;;;;;;6.25;100.00;102665.78;5083968;28;20029;-69
2023/05/18 05:25:10;;;;;;;21.80;7.28;;;;;;;6.26;100.00;102659.72;5084498;28;20530;-69
2023/05/18 05:27:36;;;;;;;19.95;6.93;;;;;;;6.30;100.00;102659.88;5082629;28;20428;-69
2023/05/18 05:30:02;;;;;;;21.35;7.13;;;;;;;6.34;100.00;102669.72;5085441;28;20456;-70
2023/05/18 05:32:27;;;;;;;21.73;7.18;;;;;;;6.41;100.00;102674.47;5081979;28;20040;-70
2023/05/18 05:34:52;;;;;;;20.98;7.43;;;;;;;6.48;100.00;102670.41;5084896;28;20024;-69
2023/05/18 05:37:18;;;;;;;22.30;7.43;;;;;;;6.46;100.00;102670.31;5083294;28;20054;-69
2023/05/18 05:39:43;;;;;;;21.40;7.28;;;;;;;6.55;100.00;102668.19;5083323;28;20082;-69
2023/05/18 05:42:09;;;;;;;21.40;7.20;;;;;;;6.56;100.00;102669.06;5084648;28;20110;-69
2023/05/18 05:44:35;;;;;;;21.63;6.80;;;;;;;6.59;100.00;102664.84;5082061;28;20029;-69
2023/05/18 05:47:01;;;;;;;21.13;7.20;;;;;;;6.63;100.00;102661.56;5085074;28;20379;-68
2023/05/18 05:49:26;;;;;;;22.63;7.15;;;;;;;6.70;100.00;102673.28;5081969;28;20084;-69
2023/05/18 05:51:51;;;;;;;21.30;7.28;;;;;;;6.68;100.00;102668.78;5083770;28;20029;-68
2023/05/18 05:54:17;;;;;;;21.98;7.30;;;;;;;6.72;100.00;102673.38;5083348;28;20466;-70
2023/05/18 05:56:42;;;;;;;22.27;7.38;;;;;;;6.79;100.00;102664.94;5082829;28;20096;-68
2023/05/18 05:59:08;;;;;;;22.85;7.50;;;;;;;6.87;100.00;102673.19;5075252;28;20368;-68
2023/05/18 06:01:33;;;;;;;22.70;7.50;;;;;;;6.94;100.00;102672.69;5078173;28;20533;-68
2023/05/18 06:03:59;;;;;;;22.65;7.75;;;;;;;7.02;100.00;102675.66;5075915;28;20036;-71
2023/05/18 06:06:24;;;;;;;21.05;7.45;;;;;;;7.10;100.00;102666.44;5079344;28;20032;-69
2023/05/18 06:08:50;;;;;;;21.65;7.68;;;;;;;7.16;100.00;102677.22;5061349;28;20032;-70
2023/05/18 06:11:15;;;;;;;22.60;7.68;;;;;;;7.19;100.00;102672.09;5078036;28;20037;-73
2023/05/18 06:13:40;;;;;;;21.77;7.10;;;;;;;7.22;100.00;102674.00;5077311;28;20025;-69
2023/05/18 06:16:06;;;;;;;21.92;7.40;;;;;;;7.31;100.00;102674.41;5075910;28;20073;-69
2023/05/18 06:18:31;;;;;;;23.10;7.93;;;;;;;7.44;100.00;102676.81;5079010;28;20107;-68
2023/05/18 06:20:56;;;;;;;22.13;7.60;;;;;;;7.53;100.00;102673.72;5074059;28;20056;-69
2023/05/18 06:23:22;;;;;;;21.42;7.80;;;;;;;7.60;100.00;102682.75;5079988;28;20024;-71
2023/05/18 06:25:48;;;;;;;21.90;8.00;;;;;;;7.60;100.00;102678.41;5079208;28;20020;-70
2023/05/18 06:28:14;;;;;;;20.85;7.50;;;;;;;7.54;100.00;102677.22;5078162;28;20074;-72
2023/05/18 06:30:40;;;;;;;23.17;7.75;;;;;;;7.52;100.00;102679.78;5073952;28;20032;-72
2023/05/18 06:33:06;;;;;;;21.88;8.00;;;;;;;7.61;100.00;102680.19;5076856;28;20059;-71
2023/05/18 06:35:32;;;;;;;23.50;8.00;;;;;;;7.70;100.00;102678.81;5079888;28;20059;-68
2023/05/18 06:37:57;;;;;;;20.90;7.78;;;;;;;7.82;100.00;102684.63;5079078;28;20475;-69
2023/05/18 06:40:23;;;;;;;22.50;7.90;;;;;;;7.89;100.00;102685.81;5080124;28;20036;-70
2023/05/18 06:42:48;;;;;;;24.30;8.18;;;;;;;8.03;100.00;102680.31;5078667;28;20032;-71
2023/05/18 06:45:14;;;;;;;22.95;7.88;;;;;;;8.12;100.00;102685.09;5072907;28;20031;-74
2023/05/18 06:47:39;;;;;;;22.23;7.93;;;;;;;8.20;100.00;102686.34;5078411;28;20491;-74
2023/05/18 06:50:05;;;;;;;21.30;7.80;;;;;;;8.30;100.00;102687.66;5076469;28;20036;-71
2023/05/18 06:52:30;;;;;;;23.70;8.25;;;;;;;8.41;100.00;102684.56;5080691;28;20039;-70
2023/05/18 06:54:55;;;;;;;22.60;7.80;;;;;;;8.45;100.00;102679.53;5086113;28;20116;-70
2023/05/18 06:57:21;;;;;;;23.48;8.02;;;;;;;8.54;100.00;102685.16;5063912;28;20035;-71
2023/05/18 06:59:52;;;;;;;23.23;7.85;;;;;;;8.64;100.00;102686.47;5081052;28;20153;-71
2023/05/18 07:02:18;;;;;;;21.77;7.68;;;;;;;8.75;100.00;102693.91;5080841;28;20110;-70
2023/05/18 07:04:43;;;;;;;21.40;7.47;;;;;;;8.83;100.00;102684.59;5092642;28;20131;-70
2023/05/18 07:07:08;;;;;;;21.58;7.63;;;;;;;8.89;100.00;102690.09;5103100;28;20039;-70
2023/05/18 07:09:34;;;;;;;21.30;7.78;;;;;;;8.95;100.00;102693.00;5097891;28;20047;-70
2023/05/18 07:11:59;;;;;;;23.33;8.02;;;;;;;9.11;100.00;102704.16;5103879;28;20033;-70
2023/05/18 07:14:24;;;;;;;23.92;7.82;;;;;;;9.25;100.00;102700.34;5102449;28;20037;-70
2023/05/18 07:16:50;;;;;;;22.35;8.02;;;;;;;9.40;100.00;102700.91;5100267;28;20033;-70
2023/05/18 07:19:15;;;;;;;20.80;7.38;;;;;;;9.48;100.00;102700.31;5080028;28;20032;-69
2023/05/18 07:21:41;;;;;;;22.05;7.95;;;;;;;9.55;100.00;102702.34;5078267;28;20043;-69
2023/05/18 07:24:06;;;;;;;20.90;7.60;;;;;;;9.56;100.00;102702.41;5083854;28;20028;-72
2023/05/18 07:26:31;;;;;;;23.20;8.18;;;;;;;9.64;100.00;102708.00;5082647;28;20032;-69
2023/05/18 07:28:57;;;;;;;21.27;7.93;;;;;;;9.73;100.00;102708.34;5079429;28;20024;-70
2023/05/18 07:31:22;;;;;;;22.75;8.13;;;;;;;9.88;100.00;102709.75;5079817;28;20039;-68
2023/05/18 07:33:47;;;;;;;21.73;7.50;;;;;;;9.86;100.00;102711.41;5080780;28;20479;-68
2023/05/18 07:36:13;;;;;;;20.33;7.30;;;;;;;9.92;100.00;102717.84;5082618;28;20029;-68
2023/05/18 07:38:39;;;;;;;21.63;7.72;;;;;;;10.00;100.00;102710.19;5079827;28;20487;-69
2023/05/18 07:41:04;;;;;;;22.33;7.75;;;;;;;10.08;100.00;102719.31;5081264;28;20383;-68
2023/05/18 07:43:30;;;;;;;22.50;7.55;;;;;;;10.07;100.00;102719.25;5079905;28;20153;-68
2023/05/18 07:45:55;;;;;;;21.17;7.75;;;;;;;10.16;100.00;102714.28;5079463;28;20502;-69
2023/05/18 07:48:21;;;;;;;22.52;7.80;;;;;;;10.24;100.00;102719.88;5082614;28;20044;-70
2023/05/18 07:50:46;;;;;;;21.40;7.57;;;;;;;10.31;100.00;102708.66;5081802;28;20044;-69
2023/05/18 07:53:11;;;;;;;21.15;7.50;;;;;;;10.51;100.00;102719.06;5083725;28;20033;-69
2023/05/18 07:55:37;;;;;;;24.15;7.90;;;;;;;10.60;100.00;102728.22;5087007;28;20032;-69
2023/05/18 07:58:02;;;;;;;21.25;7.25;;;;;;;10.72;100.00;102722.44;5079857;28;20035;-69
2023/05/18 08:00:28;;;;;;;22.48;7.70;;;;;;;10.80;100.00;102715.66;5080205;28;20029;-70
2023/05/18 08:02:53;;;;;;;21.38;7.55;;;;;;;10.95;100.00;102725.84;5080042;28;20378;-71
2023/05/18 08:05:21;;;;;;;21.45;7.35;;;;;;;11.04;100.00;102724.31;5078276;28;20030;-71
2023/05/18 08:07:46;;;;;;;23.08;7.80;;;;;;;11.08;100.00;102726.22;5081781;28;20433;-71
2023/05/18 08:10:12;;;;;;;22.92;7.40;;;;;;;11.16;99.26;102730.91;5081802;28;20024;-73
2023/05/18 08:12:37;;;;;;;21.05;7.40;;;;;;;11.31;97.16;102729.59;5082199;28;20162;-72
2023/05/18 08:15:03;;;;;;;21.65;7.10;;;;;;;11.45;92.90;102730.03;5081651;28;20094;-71
2023/05/18 08:17:28;;;;;;;23.48;7.63;;;;;;;11.56;89.84;102719.75;5078246;28;20498;-72
2023/05/18 08:19:54;;;;;;;22.45;7.07;;;;;;;11.78;95.97;102726.59;5078588;28;20399;-73
2023/05/18 08:22:19;;;;;;;21.50;6.78;;;;;;;11.77;86.74;102727.47;5078961;28;20091;-71
2023/05/18 08:24:45;;;;;;;21.40;6.53;;;;;;;12.00;87.71;102725.53;5061262;28;20029;-72
2023/05/18 08:27:11;;;;;;;20.33;6.93;;;;;;;12.34;87.56;102718.47;5079407;28;20025;-70
2023/05/18 08:29:36;;;;;;;21.48;7.00;;;;;;;12.60;84.43;102719.16;5078647;28;20024;-69
2023/05/18 08:32:04;;;;;;;20.98;6.30;;;;;;;12.71;78.29;102722.06;5077851;28;20032;-69
2023/05/18 08:34:30;;;;;;;21.00;6.20;;;;;;;12.96;78.89;102718.28;5078564;28;20406;-69
2023/05/18 08:36:55;;;;;;;20.35;6.13;;;;;;;13.06;73.55;102722.03;5078529;28;20035;-71
2023/05/18 08:39:21;;;;;;;21.23;5.90;;;;;;;13.03;71.05;102708.69;5082433;28;20020;-72
2023/05/18 08:41:49;;;;;;;22.33;6.53;;;;;;;13.04;73.11;102708.72;5080014;28;20036;-71
2023/05/18 08:44:25;;;;;;;21.13;6.30;;;;;;;13.07;72.49;102705.25;5079796;28;20028;-69
2023/05/18 08:46:51;;;;;;;22.58;6.20;;;;;;;13.21;71.41;102710.91;5077256;28;20479;-72
2023/05/18 08:49:20;;;;;;;21.50;5.80;;;;;;;13.30;70.55;102707.56;5079779;28;20052;-70
2023/05/18 08:51:48;;;;;;;20.60;5.85;;;;;;;13.36;70.38;102699.75;5077748;28;20044;-66
2023/05/18 08:54:20;;;;;;;19.42;6.15;;;;;;;13.59;69.59;102703.81;5078042;28;20047;-66
2023/05/18 08:56:46;;;;;;;19.75;5.68;;;;;;;13.52;64.70;102698.34;5077527;28;20479;-71
2023/05/18 08:59:13;;;;;;;20.65;5.72;;;;;;;13.84;67.35;102698.13;5077818;28;20094;-71
2023/05/18 09:01:39;;;;;;;20.23;5.90;;;;;;;13.92;67.03;102696.50;5077657;28;20032;-70
2023/05/18 09:04:05;;;;;;;19.83;5.53;;;;;;;13.85;64.55;102689.25;5078745;28;20036;-72
2023/05/18 09:06:32;;;;;;;19.88;5.80;;;;;;;13.84;63.94;102696.34;5081075;28;20062;-72
2023/05/18 09:08:58;;;;;;;20.45;5.43;;;;;;;13.93;64.60;102693.84;5080964;28;20410;-72
2023/05/18 09:11:25;;;;;;;19.60;5.35;;;;;;;14.28;63.42;102698.06;5062638;28;20032;-72
2023/05/18 09:13:51;;;;;;;21.63;5.78;;;;;;;14.19;62.46;102688.16;5079087;28;20436;-72
2023/05/18 09:16:17;;;;;;;21.23;5.35;;;;;;;13.98;60.93;102688.66;5079603;28;20025;-72
2023/05/18 09:18:43;;;;;;;20.17;5.07;;;;;;;14.36;63.89;102688.47;5078574;28;20029;-72
2023/05/18 09:21:09;;;;;;;19.98;5.20;;;;;;;14.67;61.60;102680.16;5079035;28;20055;-72
2023/05/18 09:23:35;;;;;;;21.08;4.90;;;;;;;15.04;58.12;102689.59;5084225;28;20039;-72
2023/05/18 09:26:03;;;;;;;19.92;5.20;;;;;;;15.30;58.36;102692.66;5083707;28;20036;-72
2023/05/18 09:28:35;;;;;;;21.83;5.47;;;;;;;15.51;57.66;102696.50;5083819;28;20086;-71
2023/05/18 09:31:02;;;;;;;19.83;5.30;;;;;;;15.44;55.24;102691.97;5084498;28;20359;-70
2023/05/18 09:33:35;;;;;;;18.80;5.40;;;;;;;15.55;56.40;102687.63;5084070;28;20411;-70
2023/05/18 09:36:03;;;;;;;21.45;5.50;;;;;;;15.83;55.41;102680.91;5084587;28;20056;-71
2023/05/18 09:38:29;;;;;;;19.73;5.20;;;;;;;16.26;54.42;102683.16;5084555;28;20032;-71
2023/05/18 09:40:54;;;;;;;20.05;5.20;;;;;;;16.74;53.30;102681.78;5085388;28;20024;-71
2023/05/18 09:43:20;;;;;;;20.70;5.00;;;;;;;17.01;52.24;102676.69;5085056;28;20029;-71
2023/05/18 09:46:06;;;;;;;18.90;5.00;;;;;;;16.90;54.22;102684.59;5111137;28;20050;-72
2023/05/18 09:48:31;;;;;;;18.17;4.82;;;;;;;17.23;50.69;102685.72;5104054;28;20211;-71
2023/05/18 09:50:58;;;;;;;17.60;5.20;;;;;;;17.59;47.92;102689.44;5105616;28;20063;-72
2023/05/18 09:53:24;;;;;;;19.60;5.30;;;;;;;18.46;47.18;102677.19;5105305;28;20019;-73
2023/05/18 09:55:49;;;;;;;19.88;5.10;;;;;;;17.89;46.09;102685.09;5106794;28;20016;-73
2023/05/18 09:58:15;;;;;;;21.17;5.40;;;;;;;17.99;46.56;102678.91;5104278;28;20052;-72
2023/05/18 10:00:42;;;;;;;20.33;5.10;;;;;;;19.53;44.25;102683.31;5106876;28;20032;-73
2023/05/18 10:03:22;;;;;;;20.50;4.95;;;;;;;20.97;40.78;102675.19;5086510;28;20030;-70
2023/05/18 10:05:48;;;;;;;22.02;5.20;;;;;;;21.48;38.86;102674.59;5078319;28;20099;-72
2023/05/18 10:08:14;;;;;;;18.63;4.80;;;;;;;21.94;38.09;102668.63;5085136;28;20032;-72
2023/05/18 10:10:43;;;;;;;19.83;5.13;;;;;;;22.26;36.54;102667.22;5082218;28;20032;-72
2023/05/18 10:13:13;;;;;;;18.30;4.72;;;;;;;22.21;37.20;102669.13;5084163;28;20082;-72
2023/05/18 10:15:52;;;;;;;18.75;4.88;;;;;;;21.95;36.95;102666.81;5081830;28;20115;-72
2023/05/18 10:18:23;;;;;;;19.13;4.72;;;;;;;21.98;35.97;102663.19;5078201;28;20379;-72
2023/05/18 10:20:49;;;;;;;17.45;4.60;;;;;;;22.04;34.50;102666.66;5077999;28;20029;-73
2023/05/18 10:23:17;;;;;;;18.55;4.80;;;;;;;21.87;34.50;102668.72;5077156;28;20029;-72
2023/05/18 10:25:45;;;;;;;20.08;5.15;;;;;;;21.36;35.78;102655.91;5084389;28;20036;-68
2023/05/18 10:28:10;;;;;;;18.08;4.78;;;;;;;21.43;36.23;102657.63;5081648;28;20029;-71
2023/05/18 10:30:39;;;;;;;18.02;4.60;;;;;;;21.73;35.82;102660.84;5083225;28;20029;-72
2023/05/18 10:33:06;;;;;;;18.17;4.68;;;;;;;22.24;34.84;102658.28;5082258;28;20063;-73
2023/05/18 10:35:32;;;;;;;18.65;4.85;;;;;;;23.12;33.36;102658.59;5082772;28;20031;-72
2023/05/18 10:37:58;;;;;;;16.00;4.18;;;;;;;23.95;32.51;102655.94;5082351;28;20475;-72
2023/05/18 10:40:27;;;;;;;18.55;4.97;;;;;;;23.29;33.68;102661.84;5081446;28;20025;-71
2023/05/18 10:42:57;;;;;;;18.23;4.80;;;;;;;23.71;34.10;102652.88;5083903;28;20108;-72
2023/05/18 10:45:23;;;;;;;19.00;5.28;;;;;;;24.15;31.45;102648.25;5081259;28;20021;-70
2023/05/18 10:47:53;;;;;;;18.38;4.95;;;;;;;24.95;31.30;102645.31;5084253;28;20032;-68
2023/05/18 10:50:20;;;;;;;17.00;5.00;;;;;;;24.42;32.09;102647.59;5077039;28;20082;-69
2023/05/18 10:52:47;;;;;;;19.15;5.13;;;;;;;24.23;32.12;102645.34;5082119;28;20118;-70
2023/05/18 10:55:13;;;;;;;18.55;5.03;;;;;;;24.37;30.97;102643.19;5081525;28;20103;-70
2023/05/18 10:57:45;;;;;;;19.55;5.05;;;;;;;24.89;30.47;102649.06;5083412;28;20032;-68
2023/05/18 11:00:11;;;;;;;19.10;5.22;;;;;;;25.05;29.05;102646.84;5081220;28;20035;-71
2023/05/18 11:02:41;;;;;;;18.35;4.90;;;;;;;25.17;29.45;102647.41;5083460;28;20036;-70
2023/05/18 11:05:07;;;;;;;16.95;4.80;;;;;;;25.33;29.29;102635.25;5080661;28;20031;-66
2023/05/18 11:07:33;;;;;;;17.75;4.90;;;;;;;25.03;29.82;102631.56;5084064;28;20028;-66
2023/05/18 11:10:01;;;;;;;17.45;5.00;;;;;;;24.51;29.85;102634.75;5080712;28;20367;-66
2023/05/18 11:12:27;;;;;;;17.95;5.07;;;;;;;24.77;29.25;102633.22;5083326;28;20028;-67
2023/05/18 11:14:54;;;;;;;18.40;5.00;;;;;;;25.48;29.41;102638.41;5063863;28;20028;-68